createdAt,value
2023-03-27T00:01:13.047Z,99657.22
2023-03-27T00:03:40.878Z,99663.41
2023-03-27T00:06:17.442Z,99656.38
2023-03-27T00:08:46.670Z,99648.31
2023-03-27T00:11:14.901Z,99645.63
2023-03-27T00:13:50.560Z,99653.69
2023-03-27T00:16:23.934Z,99653.00
2023-03-27T00:18:51.605Z,99647.47
2023-03-27T00:21:19.417Z,99645.63
2023-03-27T00:23:46.912Z,99640.44
2023-03-27T00:26:15.338Z,99642.25
2023-03-27T00:28:42.672Z,99636.03
2023-03-27T00:31:12.978Z,99643.13
2023-03-27T00:33:41.006Z,99635.22
2023-03-27T00:36:10.215Z,99628.00
2023-03-27T00:38:39.634Z,99629.84
2023-03-27T00:41:08.378Z,99629.84
2023-03-27T00:43:41.152Z,99631.69
2023-03-27T00:46:15.873Z,99626.31
2023-03-27T00:48:48.040Z,99630.66
2023-03-27T00:51:16.320Z,99629.00
2023-03-27T00:53:44.611Z,99632.69
2023-03-27T00:56:13.385Z,99634.38
2023-03-27T00:58:44.822Z,99626.50
2023-03-27T01:01:14.702Z,99637.22
2023-03-27T01:03:45.531Z,99637.22
2023-03-27T01:06:17.126Z,99634.69
2023-03-27T01:08:46.897Z,99631.88
2023-03-27T01:11:38.222Z,99638.22
2023-03-27T01:14:27.137Z,99641.91
2023-03-27T01:17:08.051Z,99635.53
2023-03-27T01:20:03.940Z,99645.44
2023-03-27T01:23:03.149Z,99627.66
2023-03-27T01:25:49.433Z,99632.19
2023-03-27T01:28:22.433Z,99634.88
2023-03-27T01:31:01.804Z,99642.94
2023-03-27T01:33:41.406Z,99642.09
2023-03-27T01:36:34.906Z,99638.56
2023-03-27T01:39:08.386Z,99638.56
2023-03-27T01:41:45.917Z,99640.41
2023-03-27T01:44:45.826Z,99627.81
2023-03-27T01:47:31.854Z,99627.81
2023-03-27T01:50:29.922Z,99631.34
2023-03-27T01:53:07.168Z,99620.75
2023-03-27T01:55:38.944Z,99616.38
2023-03-27T01:58:18.142Z,99611.84
2023-03-27T02:00:53.210Z,99612.88
2023-03-27T02:03:27.740Z,99608.34
2023-03-27T02:06:01.591Z,99606.66
2023-03-27T02:08:45.088Z,99603.97
2023-03-27T02:11:16.535Z,99597.78
2023-03-27T02:13:50.304Z,99605.81
2023-03-27T02:16:23.578Z,99605.00
2023-03-27T02:19:01.780Z,99606.66
2023-03-27T02:21:31.437Z,99603.97
2023-03-27T02:24:02.493Z,99607.66
2023-03-27T02:26:30.599Z,99615.72
2023-03-27T02:29:09.379Z,99617.56
2023-03-27T02:31:55.055Z,99624.75
2023-03-27T02:34:31.750Z,99631.00
2023-03-27T02:37:32.695Z,99631.16
2023-03-27T02:40:22.983Z,99633.84
2023-03-27T02:43:26.118Z,99631.16
2023-03-27T02:45:53.423Z,99626.78
2023-03-27T02:48:39.553Z,99629.47
2023-03-27T02:51:15.342Z,99635.69
2023-03-27T02:53:49.311Z,99635.84
2023-03-27T02:56:20.427Z,99637.53
2023-03-27T02:59:00.003Z,99637.69
2023-03-27T03:01:38.013Z,99648.44
2023-03-27T03:04:28.706Z,99652.94
2023-03-27T03:07:22.841Z,99648.59
2023-03-27T03:09:50.469Z,99660.16
2023-03-27T03:12:17.862Z,99665.53
2023-03-27T03:14:46.622Z,99668.22
2023-03-27T03:17:16.030Z,99671.75
2023-03-27T03:19:43.405Z,99683.47
2023-03-27T03:22:11.328Z,99678.13
2023-03-27T03:24:42.344Z,99687.19
2023-03-27T03:27:14.386Z,99690.72
2023-03-27T03:29:56.843Z,99687.19
2023-03-27T03:32:28.173Z,99691.72
2023-03-27T03:34:57.090Z,99694.22
2023-03-27T03:37:28.714Z,99698.06
2023-03-27T03:39:58.199Z,99696.25
2023-03-27T03:42:25.435Z,99712.34
2023-03-27T03:44:53.345Z,99706.97
2023-03-27T03:47:22.634Z,99706.25
2023-03-27T03:49:50.772Z,99714.31
2023-03-27T03:52:18.213Z,99722.38
2023-03-27T03:54:46.715Z,99715.16
2023-03-27T03:57:14.445Z,99718.84
2023-03-27T03:59:43.394Z,99726.91
2023-03-27T04:02:34.875Z,99732.28
2023-03-27T04:05:08.812Z,99741.34
2023-03-27T04:07:40.132Z,99749.38
2023-03-27T04:10:30.837Z,99749.38
2023-03-27T04:13:00.554Z,99746.84
2023-03-27T04:15:30.787Z,99752.06
2023-03-27T04:18:20.206Z,99754.75
2023-03-27T04:20:49.798Z,99759.28
2023-03-27T04:23:18.953Z,99757.44
2023-03-27T04:25:47.392Z,99771.69
2023-03-27T04:28:21.461Z,99761.09
2023-03-27T04:30:58.432Z,99771.84
2023-03-27T04:33:30.903Z,99770.03
2023-03-27T04:36:17.365Z,99777.22
2023-03-27T04:39:02.379Z,99776.22
2023-03-27T04:41:32.701Z,99771.84
2023-03-27T04:44:00.345Z,99773.69
2023-03-27T04:46:29.414Z,99776.38
2023-03-27T04:49:02.295Z,99776.38
2023-03-27T04:51:52.699Z,99784.44
2023-03-27T04:54:22.873Z,99796.16
2023-03-27T04:56:50.781Z,99793.50
2023-03-27T04:59:18.024Z,99788.97
2023-03-27T05:01:55.459Z,99800.69
2023-03-27T05:04:30.563Z,99798.03
2023-03-27T05:07:20.078Z,99793.66
2023-03-27T05:09:48.006Z,99806.06
2023-03-27T05:12:15.627Z,99807.22
2023-03-27T05:14:49.910Z,99811.59
2023-03-27T05:17:40.826Z,99816.97
2023-03-27T05:20:14.911Z,99820.63
2023-03-27T05:22:43.971Z,99819.66
2023-03-27T05:25:28.805Z,99826.00
2023-03-27T05:27:58.185Z,99825.16
2023-03-27T05:30:29.540Z,99834.22
2023-03-27T05:33:17.636Z,99839.59
2023-03-27T05:35:48.455Z,99843.13
2023-03-27T05:38:16.125Z,99847.66
2023-03-27T05:41:07.294Z,99852.19
2023-03-27T05:43:39.445Z,99854.03
2023-03-27T05:46:06.928Z,99855.88
2023-03-27T05:48:35.164Z,99858.56
2023-03-27T05:51:06.001Z,99851.47
2023-03-27T05:53:36.289Z,99858.56
2023-03-27T05:56:21.420Z,99867.59
2023-03-27T05:58:53.883Z,99867.59
2023-03-27T06:01:23.740Z,99867.59
2023-03-27T06:03:56.019Z,99867.59
2023-03-27T06:06:35.837Z,99872.97
2023-03-27T06:09:04.015Z,99869.44
2023-03-27T06:11:32.176Z,99865.91
2023-03-27T06:13:59.689Z,99870.28
2023-03-27T06:16:43.264Z,99872.13
2023-03-27T06:19:40.112Z,99877.47
2023-03-27T06:22:07.501Z,99877.66
2023-03-27T06:24:36.111Z,99875.63
2023-03-27T06:27:04.632Z,99876.66
2023-03-27T06:29:37.287Z,99882.84
2023-03-27T06:32:04.671Z,99888.22
2023-03-27T06:34:37.714Z,99888.22
2023-03-27T06:37:24.965Z,99896.28
2023-03-27T06:39:54.884Z,99905.16
2023-03-27T06:42:22.189Z,99909.69
2023-03-27T06:44:59.556Z,99916.91
2023-03-27T06:48:16.904Z,99914.22
2023-03-27T06:50:49.349Z,99919.59
2023-03-27T06:55:49.963Z,99920.13
2023-03-27T06:58:19.247Z,99918.28
2023-03-27T07:00:48.698Z,99919.00
2023-03-27T07:03:21.483Z,99924.19
2023-03-27T07:06:03.947Z,99928.56
2023-03-27T07:08:42.640Z,99924.88
2023-03-27T07:11:11.997Z,99938.16
2023-03-27T07:13:45.072Z,99932.63
2023-03-27T07:16:21.428Z,99937.00
2023-03-27T07:18:48.753Z,99934.31
2023-03-27T07:21:16.479Z,99926.28
2023-03-27T07:23:45.634Z,99931.66
2023-03-27T07:26:19.018Z,99928.09
2023-03-27T07:29:03.934Z,99929.09
2023-03-27T07:31:51.610Z,99932.78
2023-03-27T07:34:20.905Z,99941.69
2023-03-27T07:37:23.979Z,99946.22
2023-03-27T07:40:13.470Z,99946.88
2023-03-27T07:42:45.501Z,99947.75
2023-03-27T07:45:20.754Z,99953.00
2023-03-27T07:47:50.081Z,99954.53
2023-03-27T07:50:21.450Z,99955.38
2023-03-27T07:52:49.683Z,99957.72
2023-03-27T07:55:19.732Z,99960.41
2023-03-27T07:58:01.771Z,99958.44
2023-03-27T08:00:33.945Z,99960.28
2023-03-27T08:03:11.526Z,99965.63
2023-03-27T08:05:43.698Z,99966.66
2023-03-27T08:08:13.801Z,99970.19
2023-03-27T08:10:57.079Z,99983.59
2023-03-27T08:13:26.624Z,99979.91
2023-03-27T08:16:27.740Z,99986.13
2023-03-27T08:18:57.806Z,99982.44
2023-03-27T08:21:26.803Z,99994.00
2023-03-27T08:23:57.703Z,99989.50
2023-03-27T08:26:28.169Z,99996.56
2023-03-27T08:28:59.236Z,99992.88
2023-03-27T08:31:31.192Z,99989.34
2023-03-27T08:34:02.555Z,99995.56
2023-03-27T08:36:47.591Z,99988.50
2023-03-27T08:39:16.566Z,99991.19
2023-03-27T08:41:55.730Z,99988.50
2023-03-27T08:44:44.381Z,99994.88
2023-03-27T08:47:24.915Z,99989.50
2023-03-27T08:50:11.753Z,99986.66
2023-03-27T08:52:46.770Z,99987.31
2023-03-27T08:55:34.459Z,99982.81
2023-03-27T08:58:22.501Z,99989.88
2023-03-27T09:01:11.676Z,99992.56
2023-03-27T09:04:08.478Z,99982.66
2023-03-27T09:06:52.409Z,99992.56
2023-03-27T09:09:59.246Z,99997.94
2023-03-27T09:12:52.556Z,99997.09
2023-03-27T09:15:28.428Z,99993.41
2023-03-27T09:18:05.254Z,99997.94
2023-03-27T09:20:43.600Z,100003.31
2023-03-27T09:23:21.995Z,100006.84
2023-03-27T09:26:13.708Z,100008.69
2023-03-27T09:29:05.292Z,100015.72
2023-03-27T09:31:47.176Z,100005.81
2023-03-27T09:34:25.298Z,100018.25
2023-03-27T09:36:54.487Z,100011.19
2023-03-27T09:39:27.504Z,100003.31
2023-03-27T09:42:11.257Z,100011.38
2023-03-27T09:44:42.567Z,99997.22
2023-03-27T09:47:15.422Z,100016.03
2023-03-27T09:49:50.695Z,100012.66
2023-03-27T09:52:35.563Z,100017.50
2023-03-27T09:55:30.172Z,100023.88
2023-03-27T09:58:27.826Z,100024.19
2023-03-27T10:01:13.947Z,100026.31
2023-03-27T10:03:49.097Z,100031.84
2023-03-27T10:06:31.779Z,100018.44
2023-03-27T10:09:27.698Z,100021.97
2023-03-27T10:12:07.365Z,100024.75
2023-03-27T10:14:45.860Z,100021.22
2023-03-27T10:17:26.953Z,100022.06
2023-03-27T10:20:15.814Z,100022.94
2023-03-27T10:22:55.765Z,100026.50
2023-03-27T10:25:34.250Z,100032.69
2023-03-27T10:28:23.451Z,100030.84
2023-03-27T10:31:34.435Z,100042.44
2023-03-27T10:34:32.704Z,100039.91
2023-03-27T10:37:35.383Z,100044.28
2023-03-27T10:40:29.642Z,100060.38
2023-03-27T10:43:07.474Z,100050.50
2023-03-27T10:46:11.859Z,100047.81
2023-03-27T10:48:39.192Z,100047.63
2023-03-27T10:51:33.128Z,100058.25
2023-03-27T10:54:36.226Z,100056.41
2023-03-27T10:57:27.266Z,100056.41
2023-03-27T11:00:07.544Z,100062.44
2023-03-27T11:02:53.496Z,100051.69
2023-03-27T11:05:28.038Z,100052.56
2023-03-27T11:08:08.521Z,100058.78
2023-03-27T11:10:41.638Z,100070.38
2023-03-27T11:13:19.196Z,100066.69
2023-03-27T11:16:22.056Z,100062.31
2023-03-27T11:19:10.940Z,100067.69
2023-03-27T11:22:10.053Z,100068.53
2023-03-27T11:25:25.976Z,100064.00
2023-03-27T11:28:07.769Z,100076.59
2023-03-27T11:31:13.476Z,100074.56
2023-03-27T11:33:52.453Z,100067.38
2023-03-27T11:36:35.106Z,100079.94
2023-03-27T11:39:20.987Z,100076.28
2023-03-27T11:42:02.393Z,100074.44
2023-03-27T11:44:30.445Z,100080.66
2023-03-27T11:47:35.677Z,100087.69
2023-03-27T11:50:16.511Z,100079.66
2023-03-27T11:53:08.216Z,100092.06
2023-03-27T11:56:10.312Z,100083.03
2023-03-27T11:59:04.509Z,100096.59
2023-03-27T12:01:42.561Z,100085.84
2023-03-27T12:04:33.106Z,100094.75
2023-03-27T12:07:57.311Z,100100.28
2023-03-27T12:10:35.181Z,100097.59
2023-03-27T12:13:47.746Z,100086.88
2023-03-27T12:17:18.465Z,100090.56
2023-03-27T12:19:54.026Z,100094.91
2023-03-27T12:22:44.110Z,100084.19
2023-03-27T12:25:24.361Z,100083.16
2023-03-27T12:28:22.860Z,100086.56
2023-03-27T12:31:26.142Z,100090.94
2023-03-27T12:34:01.652Z,100089.09
2023-03-27T12:36:37.611Z,100097.97
2023-03-27T12:39:26.560Z,100097.16
2023-03-27T12:41:57.143Z,100095.16
2023-03-27T12:45:03.174Z,100094.16
2023-03-27T12:47:31.122Z,100104.06
2023-03-27T12:50:34.774Z,100106.75
2023-03-27T12:53:05.787Z,100095.00
2023-03-27T12:55:39.363Z,100103.22
2023-03-27T12:58:11.077Z,100108.44
2023-03-27T13:00:53.809Z,100106.75
2023-03-27T13:03:46.991Z,100114.81
2023-03-27T13:06:18.226Z,100106.59
2023-03-27T13:09:17.113Z,100108.44
2023-03-27T13:12:23.222Z,100100.38
2023-03-27T13:14:56.704Z,100116.50
2023-03-27T13:17:55.906Z,100103.06
2023-03-27T13:20:35.795Z,100119.16
2023-03-27T13:23:06.306Z,100104.91
2023-03-27T13:25:48.682Z,100119.16
2023-03-27T13:28:29.360Z,100121.84
2023-03-27T13:31:45.496Z,100103.06
2023-03-27T13:34:41.321Z,100121.03
2023-03-27T13:37:14.131Z,100116.66
2023-03-27T13:40:02.227Z,100127.41
2023-03-27T13:42:40.204Z,100128.38
2023-03-27T13:45:34.700Z,100110.44
2023-03-27T13:48:53.980Z,100122.03
2023-03-27T13:51:43.256Z,100117.50
2023-03-27T13:54:26.688Z,100107.59
2023-03-27T13:57:01.140Z,100113.97
2023-03-27T13:59:59.671Z,100130.09
2023-03-27T14:03:02.222Z,100125.69
2023-03-27T14:05:58.435Z,100109.56
2023-03-27T14:09:07.892Z,100118.63
2023-03-27T14:12:31.435Z,100112.41
2023-03-27T14:15:26.691Z,100110.56
2023-03-27T14:18:23.274Z,100125.84
2023-03-27T14:20:56.723Z,100112.41
2023-03-27T14:23:38.732Z,100128.53
2023-03-27T14:26:24.703Z,100125.84
2023-03-27T14:28:59.142Z,100126.84
2023-03-27T14:31:44.456Z,100126.00
2023-03-27T14:34:47.371Z,100124.16
2023-03-27T14:38:00.242Z,100126.84
2023-03-27T14:40:52.488Z,100122.31
2023-03-27T14:43:28.808Z,100128.53
2023-03-27T14:46:01.318Z,100128.53
2023-03-27T14:48:33.132Z,100132.06
2023-03-27T14:51:06.348Z,100127.69
2023-03-27T14:53:44.453Z,100131.38
2023-03-27T14:56:38.180Z,100139.44
2023-03-27T14:59:12.000Z,100142.13
2023-03-27T15:01:50.384Z,100147.50
2023-03-27T15:04:19.234Z,100168.97
2023-03-27T15:06:50.159Z,100161.06
2023-03-27T15:09:37.873Z,100154.00
2023-03-27T15:12:23.811Z,100165.59
2023-03-27T15:14:53.024Z,100169.13
2023-03-27T15:17:20.825Z,100179.19
2023-03-27T15:19:51.257Z,100179.19
2023-03-27T15:22:27.721Z,100187.22
2023-03-27T15:25:12.502Z,100189.06
2023-03-27T15:27:48.233Z,100197.13
2023-03-27T15:30:34.002Z,100198.09
2023-03-27T15:33:02.220Z,100191.06
2023-03-27T15:35:38.948Z,100195.41
2023-03-27T15:38:11.729Z,100202.63
2023-03-27T15:40:43.146Z,100200.78
2023-03-27T15:43:13.609Z,100198.09
2023-03-27T15:46:00.163Z,100212.41
2023-03-27T15:48:35.372Z,100229.50
2023-03-27T15:51:05.619Z,100224.97
2023-03-27T15:53:38.712Z,100229.50
2023-03-27T15:56:24.363Z,100237.72
2023-03-27T15:59:04.409Z,100239.56
2023-03-27T16:01:38.488Z,100239.41
2023-03-27T16:04:16.518Z,100237.72
2023-03-27T16:06:51.215Z,100253.81
2023-03-27T16:09:26.406Z,100237.72
2023-03-27T16:11:55.197Z,100245.94
2023-03-27T16:14:27.866Z,100259.19
2023-03-27T16:17:16.984Z,100260.19
2023-03-27T16:19:59.213Z,100264.56
2023-03-27T16:22:32.377Z,100258.34
2023-03-27T16:25:01.572Z,100277.16
2023-03-27T16:27:35.675Z,100266.53
2023-03-27T16:30:05.012Z,100288.88
2023-03-27T16:32:32.543Z,100298.75
2023-03-27T16:34:59.841Z,100305.84
2023-03-27T16:37:27.647Z,100313.19
2023-03-27T16:39:55.108Z,100333.00
2023-03-27T16:42:26.335Z,100328.47
2023-03-27T16:44:53.980Z,100341.88
2023-03-27T16:47:23.138Z,100347.25
2023-03-27T16:50:08.156Z,100365.91
2023-03-27T16:52:39.185Z,100356.16
2023-03-27T16:55:08.443Z,100359.84
2023-03-27T16:57:43.010Z,100375.94
2023-03-27T17:00:14.400Z,100376.13
2023-03-27T17:02:50.825Z,100386.84
2023-03-27T17:05:18.824Z,100397.59
2023-03-27T17:07:46.877Z,100399.41
2023-03-27T17:10:16.598Z,100415.53
2023-03-27T17:12:45.738Z,100424.56
2023-03-27T17:15:20.491Z,100430.78
2023-03-27T17:17:48.919Z,100425.56
2023-03-27T17:20:16.360Z,100433.47
2023-03-27T17:22:44.803Z,100427.25
2023-03-27T17:25:12.309Z,100441.53
2023-03-27T17:27:39.681Z,100445.06
2023-03-27T17:30:07.705Z,100454.00
2023-03-27T17:32:34.967Z,100460.19
2023-03-27T17:35:04.463Z,100461.88
2023-03-27T17:37:31.810Z,100476.31
2023-03-27T17:39:59.144Z,100484.38
2023-03-27T17:42:26.449Z,100489.03
2023-03-27T17:44:53.693Z,100486.34
2023-03-27T17:47:21.754Z,100497.22
2023-03-27T17:49:48.986Z,100497.22
2023-03-27T17:52:16.270Z,100507.13
2023-03-27T17:54:43.511Z,100511.63
2023-03-27T17:57:10.816Z,100509.91
2023-03-27T17:59:38.490Z,100501.84
2023-03-27T18:02:07.429Z,100506.53
2023-03-27T18:04:35.048Z,100524.47
2023-03-27T18:07:02.343Z,100520.06
2023-03-27T18:09:32.465Z,100525.59
2023-03-27T18:11:59.793Z,100528.44
2023-03-27T18:14:27.134Z,100539.19
2023-03-27T18:16:55.206Z,100546.34
2023-03-27T18:19:24.113Z,100546.50
2023-03-27T18:21:51.511Z,100550.88
2023-03-27T18:24:19.376Z,100554.41
2023-03-27T18:26:46.687Z,100545.50
2023-03-27T18:29:14.574Z,100562.63
2023-03-27T18:31:43.055Z,100568.72
2023-03-27T18:34:11.485Z,100561.63
2023-03-27T18:36:38.794Z,100577.72
2023-03-27T18:39:06.734Z,100582.25
2023-03-27T18:41:35.667Z,100582.13
2023-03-27T18:44:03.396Z,100589.19
2023-03-27T18:46:30.978Z,100594.56
2023-03-27T18:48:58.752Z,100597.25
2023-03-27T18:51:26.152Z,100599.09
2023-03-27T18:53:53.409Z,100603.47
2023-03-27T18:56:20.729Z,100613.34
2023-03-27T18:58:48.474Z,100611.53
2023-03-27T19:01:16.077Z,100618.72
2023-03-27T19:03:43.535Z,100631.16
2023-03-27T19:06:11.911Z,100633.00
2023-03-27T19:08:42.059Z,100630.31
2023-03-27T19:11:10.380Z,100652.63
2023-03-27T19:13:56.751Z,100651.78
2023-03-27T19:16:33.472Z,100657.16
2023-03-27T19:19:39.503Z,100658.00
2023-03-27T19:22:25.194Z,100666.91
2023-03-27T19:24:57.701Z,100675.97
2023-03-27T19:27:25.555Z,100675.97
2023-03-27T19:29:54.379Z,100683.16
2023-03-27T19:32:23.354Z,100695.59
2023-03-27T19:34:50.824Z,100699.28
2023-03-27T19:37:18.245Z,100702.81
2023-03-27T19:39:45.816Z,100713.41
2023-03-27T19:42:14.263Z,100717.09
2023-03-27T19:44:41.763Z,100731.34
2023-03-27T19:47:09.854Z,100738.56
2023-03-27T19:49:37.741Z,100738.56
2023-03-27T19:52:31.534Z,100748.47
2023-03-27T19:54:58.818Z,100756.53
2023-03-27T19:57:26.649Z,100768.94
2023-03-27T19:59:53.872Z,100768.09
2023-03-27T20:02:21.393Z,100786.91
2023-03-27T20:04:49.589Z,100779.84
2023-03-27T20:07:16.865Z,100785.22
2023-03-27T20:09:44.228Z,100799.47
2023-03-27T20:12:12.530Z,100810.38
2023-03-27T20:14:39.903Z,100811.22
2023-03-27T20:17:12.211Z,100815.75
2023-03-27T20:19:50.143Z,100820.22
2023-03-27T20:22:20.423Z,100819.38
2023-03-27T20:24:48.946Z,100836.34
2023-03-27T20:27:19.811Z,100834.66
2023-03-27T20:29:47.878Z,100845.38
2023-03-27T20:32:16.212Z,100853.59
2023-03-27T20:34:46.328Z,100863.34
2023-03-27T20:37:14.138Z,100875.78
2023-03-27T20:39:47.419Z,100888.34
2023-03-27T20:42:17.606Z,100892.88
2023-03-27T20:44:45.993Z,100903.63
2023-03-27T20:47:15.109Z,100920.56
2023-03-27T20:50:03.389Z,100920.56
2023-03-27T20:52:30.671Z,100937.53
2023-03-27T20:54:57.922Z,100942.06
2023-03-27T20:57:25.399Z,100949.13
2023-03-27T20:59:54.309Z,100955.47
2023-03-27T21:02:21.784Z,100970.59
2023-03-27T21:04:49.102Z,100983.06
2023-03-27T21:07:16.935Z,100989.28
2023-03-27T21:09:47.261Z,101002.72
2023-03-27T21:12:14.527Z,101019.53
2023-03-27T21:14:41.958Z,101020.38
2023-03-27T21:17:12.136Z,101040.06
2023-03-27T21:19:39.563Z,101042.75
2023-03-27T21:22:06.902Z,101059.69
2023-03-27T21:24:34.179Z,101059.69
2023-03-27T21:27:01.511Z,101073.00
2023-03-27T21:29:28.819Z,101072.16
2023-03-27T21:31:56.212Z,101086.31
2023-03-27T21:34:23.635Z,101089.00
2023-03-27T21:36:50.929Z,101095.25
2023-03-27T21:39:18.313Z,101092.56
2023-03-27T21:41:45.593Z,101096.09
2023-03-27T21:44:13.010Z,101107.81
2023-03-27T21:46:40.405Z,101120.34
2023-03-27T21:49:07.724Z,101127.56
2023-03-27T21:51:35.047Z,101134.66
2023-03-27T21:54:02.604Z,101147.19
2023-03-27T21:56:29.940Z,101154.41
2023-03-27T21:58:57.558Z,101159.06
2023-03-27T22:01:25.021Z,101160.91
2023-03-27T22:03:52.287Z,101169.06
2023-03-27T22:06:19.692Z,101178.97
2023-03-27T22:08:46.997Z,101188.84
2023-03-27T22:11:14.323Z,101196.91
2023-03-27T22:13:43.362Z,101201.53
2023-03-27T22:16:13.864Z,101213.16
2023-03-27T22:18:42.789Z,101210.47
2023-03-27T22:21:14.224Z,101218.41
2023-03-27T22:23:41.593Z,101240.72
2023-03-27T22:26:09.203Z,101246.09
2023-03-27T22:28:36.816Z,101254.03
2023-03-27T22:31:04.667Z,101254.03
2023-03-27T22:33:32.113Z,101261.97
2023-03-27T22:35:59.744Z,101266.59
2023-03-27T22:38:31.138Z,101268.34
2023-03-27T22:40:59.705Z,101273.69
2023-03-27T22:43:29.767Z,101281.00
2023-03-27T22:45:57.486Z,101281.00
2023-03-27T22:48:24.807Z,101291.75
2023-03-27T22:50:56.535Z,101301.66
2023-03-27T22:53:25.398Z,101300.78
2023-03-27T22:55:57.582Z,101312.38
2023-03-27T22:58:25.976Z,101315.22
2023-03-27T23:00:54.249Z,101325.19
2023-03-27T23:03:23.478Z,101323.38
2023-03-27T23:05:51.277Z,101327.03
2023-03-27T23:08:20.345Z,101332.41
2023-03-27T23:10:55.426Z,101333.25
2023-03-27T23:13:23.442Z,101336.06
2023-03-27T23:15:54.258Z,101336.06
2023-03-27T23:18:24.614Z,101345.97
2023-03-27T23:21:00.386Z,101350.44
2023-03-27T23:23:29.550Z,101354.97
2023-03-27T23:26:00.093Z,101365.72
2023-03-27T23:28:31.754Z,101363.03
2023-03-27T23:31:04.906Z,101364.00
2023-03-27T23:33:36.145Z,101372.06
2023-03-27T23:36:07.632Z,101380.13
2023-03-27T23:38:35.435Z,101388.19
2023-03-27T23:41:03.554Z,101386.47
2023-03-27T23:43:31.768Z,101388.31
2023-03-27T23:45:59.784Z,101399.91
2023-03-27T23:48:30.766Z,101402.59
2023-03-27T23:50:58.586Z,101398.19
2023-03-27T23:53:28.194Z,101400.88
2023-03-27T23:55:57.685Z,101408.94
2023-03-27T23:58:28.793Z,101408.06
